Time;durP1;ratioP1;P1;durP2;ratioP2;P2;SDS_P1;SDS_P2;PMS_P1;PMS_P2;Temp;Humidity;BMP_temperature;BMP_pressure;BME280_temperature;BME280_humidity;BME280_pressure;Samples;Min_cycle;Max_cycle;Signal;HPM_P1;HPM_P2
2023/06/21 00:01:28;;;;;;;;;;;;;;;22.46;100.00;-18630.22;4976685;28;19976;-78
2023/06/21 00:03:54;;;;;;;;;;;;;;;22.43;100.00;-18629.41;4978563;28;19996;-78
2023/06/21 00:06:19;;;;;;;;;;;;;;;22.11;100.00;-18621.00;4974828;28;19921;-78
2023/06/21 00:08:44;;;;;;;;;;;;;;;22.16;100.00;-18622.34;4987819;28;20002;-77
2023/06/21 00:11:10;;;;;;;;;;;;;;;22.35;100.00;-18627.38;4973499;28;19944;-78
2023/06/21 00:13:35;;;;;;;;;;;;;;;22.38;100.00;-18628.06;4972685;28;19918;-78
2023/06/21 00:16:00;;;;;;;;;;;;;;;22.18;100.00;-18622.75;4988385;28;19924;-78
2023/06/21 00:18:25;;;;;;;;;;;;;;;22.34;100.00;-18626.97;4975263;28;19918;-78
2023/06/21 00:20:50;;;;;;;;;;;;;;;22.27;100.00;-18625.22;4972212;28;19961;-78
2023/06/21 00:23:18;;;;;;;;;;;;;;;22.01;100.00;-18618.28;4972347;28;19917;-78
2023/06/21 00:25:43;;;;;;;;;;;;;;;22.12;100.00;-18621.25;4975757;28;19933;-78
2023/06/21 00:28:08;;;;;;;;;;;;;;;22.21;100.00;-18623.72;4971708;28;19926;-78
2023/06/21 00:30:33;;;;;;;;;;;;;;;22.09;100.00;-18620.59;4972687;28;19961;-78
2023/06/21 00:33:00;;;;;;;;;;;;;;;21.99;100.00;-18617.72;4972002;28;20289;-78
2023/06/21 00:35:25;;;;;;;;;;;;;;;21.84;100.00;-18613.78;4975174;28;19941;-78
2023/06/21 00:37:50;;;;;;;;;;;;;;;21.90;100.00;-18615.28;4973775;28;20417;-78
2023/06/21 00:40:16;;;;;;;;;;;;;;;21.82;100.00;-18613.25;4972080;28;19925;-78
2023/06/21 00:42:41;;;;;;;;;;;;;;;21.58;100.00;-18606.88;4987560;28;20444;-77
2023/06/21 00:45:08;;;;;;;;;;;;;;;21.54;100.00;-18605.78;4976561;28;20321;-78
2023/06/21 00:47:33;;;;;;;;;;;;;;;21.56;100.00;-18606.31;4973115;28;20009;-78
2023/06/21 00:49:58;;;;;;;;;;;;;;;21.70;100.00;-18610.13;4987578;28;20351;-78
2023/06/21 00:52:25;;;;;;;;;;;;;;;21.55;100.00;-18606.03;4986759;28;19925;-78
2023/06/21 00:54:50;;;;;;;;;;;;;;;21.51;100.00;-18605.09;4987191;28;19929;-78
2023/06/21 00:57:16;;;;;;;;;;;;;;;21.59;100.00;-18607.28;4970353;28;19918;-77
2023/06/21 00:59:41;;;;;;;;;;;;;;;21.47;100.00;-18604.00;4971987;28;19925;-78
2023/06/21 01:02:06;;;;;;;;;;;;;;;21.39;100.00;-18601.97;4973700;28;19925;-78
2023/06/21 01:04:33;;;;;;;;;;;;;;;21.56;100.00;-18606.31;4970623;28;19929;-78
2023/06/21 01:07:24;;;;;;;;;;;;;;;21.56;100.00;-18606.31;4973072;28;19921;-78
2023/06/21 01:09:52;;;;;;;;;;;;;;;21.53;100.00;-18605.63;4998577;28;19930;-78
2023/06/21 01:12:36;;;;;;;;;;;;;;;21.36;100.00;-18601.00;4974385;28;19918;-78
2023/06/21 01:15:03;;;;;;;;;;;;;;;21.46;100.00;-18603.72;4975565;28;20372;-78
2023/06/21 01:17:31;;;;;;;;;;;;;;;21.46;100.00;-18603.59;4986650;28;19918;-78
2023/06/21 01:19:56;;;;;;;;;;;;;;;21.20;100.00;-18596.78;4971549;28;19918;-78
2023/06/21 01:22:22;;;;;;;;;;;;;;;21.24;100.00;-18597.75;4972706;28;20594;-78
2023/06/21 01:25:06;;;;;;;;;;;;;;;21.28;100.00;-18598.84;4972439;28;20003;-78
2023/06/21 01:27:41;;;;;;;;;;;;;;;21.33;100.00;-18600.19;4985773;28;19944;-78
2023/06/21 01:30:08;;;;;;;;;;;;;;;21.21;100.00;-18597.06;4972648;28;19922;-78
2023/06/21 01:32:34;;;;;;;;;;;;;;;21.31;100.00;-18599.78;4972444;28;19922;-78
2023/06/21 01:35:01;;;;;;;;;;;;;;;21.17;100.00;-18596.13;4971708;28;19977;-78
2023/06/21 01:37:26;;;;;;;;;;;;;;;21.24;100.00;-18597.75;4973065;28;19922;-77
2023/06/21 01:39:52;;;;;;;;;;;;;;;21.01;100.00;-18591.63;4972895;28;19926;-79
2023/06/21 01:42:18;;;;;;;;;;;;;;;21.08;100.00;-18593.66;4976258;28;19965;-79
2023/06/21 01:44:43;;;;;;;;;;;;;;;21.07;100.00;-18593.25;4971271;28;20397;-79
2023/06/21 01:47:09;;;;;;;;;;;;;;;21.02;100.00;-18592.03;4973430;28;19926;-77
2023/06/21 01:49:35;;;;;;;;;;;;;;;20.92;100.00;-18589.47;4972106;28;19922;-78
2023/06/21 01:52:04;;;;;;;;;;;;;;;20.95;100.00;-18590.28;4972590;28;19966;-78
2023/06/21 01:54:30;;;;;;;;;;;;;;;21.09;100.00;-18593.81;4988445;28;19918;-79
2023/06/21 01:57:00;;;;;;;;;;;;;;;21.05;100.00;-18592.72;4975864;28;19960;-78
2023/06/21 01:59:27;;;;;;;;;;;;;;;21.15;100.00;-18595.56;4970938;28;19918;-79
2023/06/21 02:01:53;;;;;;;;;;;;;;;21.17;100.00;-18595.97;4971213;28;19918;-78
2023/06/21 02:04:20;;;;;;;;;;;;;;;20.91;100.00;-18589.19;4971637;28;20009;-78
2023/06/21 02:06:48;;;;;;;;;;;;;;;21.02;100.00;-18592.03;4971103;28;19918;-78
2023/06/21 02:09:13;;;;;;;;;;;;;;;20.83;100.00;-18586.88;4986060;28;20270;-79
2023/06/21 02:11:42;;;;;;;;;;;;;;;20.60;100.00;-18580.75;4970457;28;19929;-79
2023/06/21 02:14:07;;;;;;;;;;;;;;;20.76;100.00;-18585.09;4971647;28;20149;-78
2023/06/21 02:16:32;;;;;;;;;;;;;;;20.62;100.00;-18581.28;4974390;28;20353;-78
2023/06/21 02:18:58;;;;;;;;;;;;;;;20.84;100.00;-18587.16;4976169;28;20389;-76
2023/06/21 02:21:23;;;;;;;;;;;;;;;20.65;100.00;-18582.09;4976086;28;19925;-78
2023/06/21 02:23:48;;;;;;;;;;;;;;;20.63;100.00;-18581.56;4974287;28;19928;-76
2023/06/21 02:26:14;;;;;;;;;;;;;;;20.68;100.00;-18583.06;4975171;28;19918;-77
2023/06/21 02:28:39;;;;;;;;;;;;;;;20.68;100.00;-18583.06;4975325;28;19949;-77
2023/06/21 02:31:04;;;;;;;;;;;;;;;20.62;100.00;-18581.44;4990580;28;19918;-77
2023/06/21 02:33:31;;;;;;;;;;;;;;;20.53;100.00;-18578.84;4970623;28;19982;-78
2023/06/21 02:35:56;;;;;;;;;;;;;;;20.51;100.00;-18578.44;4975506;28;19951;-77
2023/06/21 02:38:21;;;;;;;;;;;;;;;20.66;100.00;-18582.53;4975509;28;20006;-78
2023/06/21 02:40:49;;;;;;;;;;;;;;;20.88;100.00;-18588.38;4977708;28;19920;-77
2023/06/21 02:43:14;;;;;;;;;;;;;;;20.90;100.00;-18588.91;4977401;28;19964;-78
2023/06/21 02:45:39;;;;;;;;;;;;;;;20.78;100.00;-18585.66;4977716;28;19914;-77
2023/06/21 02:48:05;;;;;;;;;;;;;;;20.82;100.00;-18586.59;4987022;28;20382;-78
2023/06/21 02:50:30;;;;;;;;;;;;;;;20.87;100.00;-18588.09;4972562;28;20389;-77
2023/06/21 02:52:55;;;;;;;;;;;;;;;20.79;100.00;-18585.91;4974031;28;20378;-78
2023/06/21 02:55:20;;;;;;;;;;;;;;;20.80;100.00;-18586.06;4974119;28;20081;-77
2023/06/21 02:57:46;;;;;;;;;;;;;;;20.96;100.00;-18590.53;4974492;28;20015;-78
2023/06/21 03:00:33;;;;;;;;;;;;;;;21.04;100.00;-18592.59;4973957;28;19922;-78
2023/06/21 03:03:00;;;;;;;;;;;;;;;20.88;100.00;-18588.38;4975553;28;20125;-78
2023/06/21 03:05:35;;;;;;;;;;;;;;;20.86;100.00;-18587.81;4974861;28;20013;-78
2023/06/21 03:08:03;;;;;;;;;;;;;;;20.78;100.00;-18585.66;4974654;28;20309;-77
2023/06/21 03:10:29;;;;;;;;;;;;;;;20.95;100.00;-18590.28;4974508;28;19918;-78
2023/06/21 03:12:55;;;;;;;;;;;;;;;21.06;100.00;-18593.00;4975554;28;19926;-78
2023/06/21 03:15:20;;;;;;;;;;;;;;;21.00;100.00;-18591.50;4973520;28;20293;-77
2023/06/21 03:17:48;;;;;;;;;;;;;;;20.98;100.00;-18590.81;4976252;28;19918;-78
2023/06/21 03:20:13;;;;;;;;;;;;;;;21.12;100.00;-18594.63;4974398;28;19918;-78
2023/06/21 03:22:42;;;;;;;;;;;;;;;21.19;100.00;-18596.53;4972195;28;19929;-78
2023/06/21 03:25:11;;;;;;;;;;;;;;;21.07;100.00;-18593.25;4969846;28;19960;-77
2023/06/21 03:27:36;;;;;;;;;;;;;;;21.03;100.00;-18592.19;4973479;28;19918;-77
2023/06/21 03:30:02;;;;;;;;;;;;;;;20.93;100.00;-18589.59;4970223;28;20427;-76
2023/06/21 03:32:28;;;;;;;;;;;;;;;20.81;100.00;-18586.47;4985540;28;19918;-76
2023/06/21 03:34:53;;;;;;;;;;;;;;;20.99;100.00;-18591.09;4969753;28;19922;-76
2023/06/21 03:37:18;;;;;;;;;;;;;;;21.07;100.00;-18593.25;4970614;28;19922;-77
2023/06/21 03:39:44;;;;;;;;;;;;;;;21.05;100.00;-18592.72;4969786;28;19918;-76
2023/06/21 03:42:10;;;;;;;;;;;;;;;21.24;100.00;-18597.88;4974246;28;19917;-76
2023/06/21 03:44:36;;;;;;;;;;;;;;;21.20;100.00;-18596.78;4971335;28;19922;-77
2023/06/21 03:47:01;;;;;;;;;;;;;;;21.26;100.00;-18598.44;4971494;28;19918;-77
2023/06/21 03:49:26;;;;;;;;;;;;;;;21.28;100.00;-18598.84;4966745;28;19925;-76
2023/06/21 03:51:51;;;;;;;;;;;;;;;20.87;100.00;-18588.09;4969751;28;19984;-77
2023/06/21 03:54:17;;;;;;;;;;;;;;;21.09;100.00;-18593.81;4967509;28;19972;-76
2023/06/21 03:56:42;;;;;;;;;;;;;;;21.21;100.00;-18596.94;4985909;28;19925;-77
2023/06/21 03:59:07;;;;;;;;;;;;;;;21.23;100.00;-18597.63;4969682;28;20374;-77
2023/06/21 04:01:32;;;;;;;;;;;;;;;21.21;100.00;-18596.94;4971336;28;20378;-77
2023/06/21 04:03:58;;;;;;;;;;;;;;;20.78;100.00;-18585.66;4970263;28;20009;-77
2023/06/21 04:06:23;;;;;;;;;;;;;;;20.79;100.00;-18585.78;4972996;28;19959;-77
2023/06/21 04:08:48;;;;;;;;;;;;;;;20.92;100.00;-18589.47;4968889;28;19926;-77
2023/06/21 04:11:14;;;;;;;;;;;;;;;21.00;100.00;-18591.34;4967659;28;19918;-77
2023/06/21 04:13:39;;;;;;;;;;;;;;;21.06;100.00;-18593.13;4967935;28;19972;-76
2023/06/21 04:16:04;;;;;;;;;;;;;;;20.96;100.00;-18590.41;4972065;28;19926;-77
2023/06/21 04:18:29;;;;;;;;;;;;;;;20.89;100.00;-18588.63;4973059;28;20435;-77
2023/06/21 04:20:55;;;;;;;;;;;;;;;20.99;100.00;-18591.22;4969606;28;19922;-77
2023/06/21 04:23:20;;;;;;;;;;;;;;;21.11;100.00;-18594.47;4970907;28;19925;-77
2023/06/21 04:25:45;;;;;;;;;;;;;;;21.02;100.00;-18592.03;4965166;28;19918;-77
2023/06/21 04:28:10;;;;;;;;;;;;;;;20.98;100.00;-18590.94;4967906;28;20421;-77
2023/06/21 04:30:36;;;;;;;;;;;;;;;20.95;100.00;-18590.28;4966636;28;19961;-77
2023/06/21 04:33:01;;;;;;;;;;;;;;;21.05;100.00;-18592.72;4972184;28;19921;-77
2023/06/21 04:35:27;;;;;;;;;;;;;;;21.05;100.00;-18592.84;4963813;28;19918;-77
2023/06/21 04:37:52;;;;;;;;;;;;;;;21.04;100.00;-18592.44;4961625;28;19925;-77
2023/06/21 04:40:18;;;;;;;;;;;;;;;21.09;100.00;-18593.81;4962455;28;20476;-77
2023/06/21 04:42:47;;;;;;;;;;;;;;;21.14;100.00;-18595.31;4963562;28;19972;-77
2023/06/21 04:45:14;;;;;;;;;;;;;;;21.19;100.00;-18596.53;4971962;28;19953;-77
2023/06/21 04:47:40;;;;;;;;;;;;;;;21.47;100.00;-18603.88;4969975;28;19922;-77
2023/06/21 04:50:05;;;;;;;;;;;;;;;21.68;100.00;-18609.44;4968787;28;19936;-77
2023/06/21 04:52:31;;;;;;;;;;;;;;;21.67;100.00;-18609.31;4972387;28;19924;-78
2023/06/21 04:54:59;;;;;;;;;;;;;;;21.28;100.00;-18598.84;4982387;28;19945;-78
2023/06/21 04:57:25;;;;;;;;;;;;;;;21.14;100.00;-18595.16;4966070;28;19932;-78
2023/06/21 04:59:50;;;;;;;;;;;;;;;21.16;100.00;-18595.84;4980741;28;19918;-77
2023/06/21 05:02:15;;;;;;;;;;;;;;;21.38;100.00;-18601.69;4968907;28;19952;-78
2023/06/21 05:04:40;;;;;;;;;;;;;;;21.28;100.00;-18598.97;4967829;28;20025;-78
2023/06/21 05:07:06;;;;;;;;;;;;;;;21.54;100.00;-18605.78;4967102;28;19941;-77
2023/06/21 05:09:31;;;;;;;;;;;;;;;21.67;100.00;-18609.19;4967994;28;20799;-77
2023/06/21 05:11:56;;;;;;;;;;;;;;;21.20;100.00;-18596.78;4967285;28;19917;-78
2023/06/21 05:14:21;;;;;;;;;;;;;;;21.10;100.00;-18594.09;4967719;28;19925;-78
2023/06/21 05:16:47;;;;;;;;;;;;;;;21.22;100.00;-18597.34;4967394;28;19925;-77
2023/06/21 05:19:12;;;;;;;;;;;;;;;21.36;100.00;-18601.16;4981860;28;19925;-78
2023/06/21 05:21:37;;;;;;;;;;;;;;;21.19;100.00;-18596.53;4968738;28;19930;-78
2023/06/21 05:24:03;;;;;;;;;;;;;;;21.43;100.00;-18602.78;4967114;28;19981;-77
2023/06/21 05:26:28;;;;;;;;;;;;;;;21.44;100.00;-18603.06;4967159;28;20005;-78
2023/06/21 05:28:53;;;;;;;;;;;;;;;21.49;100.00;-18604.41;4971127;28;20581;-77
2023/06/21 05:31:18;;;;;;;;;;;;;;;21.66;100.00;-18609.03;4972766;28;19922;-78
2023/06/21 05:33:44;;;;;;;;;;;;;;;21.65;100.00;-18608.75;4967462;28;19918;-77
2023/06/21 05:36:09;;;;;;;;;;;;;;;21.44;100.00;-18603.19;4967035;28;19918;-77
2023/06/21 05:38:34;;;;;;;;;;;;;;;21.65;100.00;-18608.75;4966933;28;20012;-77
2023/06/21 05:41:00;;;;;;;;;;;;;;;21.70;100.00;-18610.00;4968457;28;20407;-77
2023/06/21 05:43:25;;;;;;;;;;;;;;;21.81;100.00;-18613.13;4968053;28;20005;-77
2023/06/21 05:45:50;;;;;;;;;;;;;;;21.88;100.00;-18614.75;4968451;28;20293;-76
2023/06/21 05:48:17;;;;;;;;;;;;;;;21.75;100.00;-18611.47;4969679;28;20159;-77
2023/06/21 05:50:42;;;;;;;;;;;;;;;21.82;100.00;-18613.38;4966034;28;19926;-77
2023/06/21 05:53:07;;;;;;;;;;;;;;;21.85;100.00;-18614.06;4967334;28;20398;-77
2023/06/21 05:55:33;;;;;;;;;;;;;;;21.72;100.00;-18610.66;4972660;28;20385;-77
2023/06/21 05:57:58;;;;;;;;;;;;;;;21.88;100.00;-18614.75;4987292;28;20424;-77
2023/06/21 06:00:23;;;;;;;;;;;;;;;21.95;100.00;-18616.66;4962742;28;19926;-77
2023/06/21 06:02:48;;;;;;;;;;;;;;;21.85;100.00;-18614.19;4969100;28;20437;-77
2023/06/21 06:05:14;;;;;;;;;;;;;;;22.13;100.00;-18621.53;4981341;28;20505;-77
2023/06/21 06:07:39;;;;;;;;;;;;;;;22.18;100.00;-18622.91;4980422;28;19965;-76
2023/06/21 06:10:05;;;;;;;;;;;;;;;22.10;100.00;-18620.72;4966812;28;19918;-77
2023/06/21 06:12:30;;;;;;;;;;;;;;;22.10;100.00;-18620.72;4965907;28;19954;-76
2023/06/21 06:14:55;;;;;;;;;;;;;;;22.35;100.00;-18627.25;4966780;28;20397;-77
2023/06/21 06:17:21;;;;;;;;;;;;;;;22.33;100.00;-18626.69;4981539;28;19957;-77
2023/06/21 06:19:46;;;;;;;;;;;;;;;22.34;100.00;-18626.97;4964254;28;19918;-77
2023/06/21 06:22:11;;;;;;;;;;;;;;;22.27;100.00;-18625.34;4967215;28;19922;-78
2023/06/21 06:24:36;;;;;;;;;;;;;;;22.34;100.00;-18626.97;4967260;28;20493;-77
2023/06/21 06:27:02;;;;;;;;;;;;;;;22.38;100.00;-18628.19;4967177;28;19922;-77
2023/06/21 06:29:27;;;;;;;;;;;;;;;22.48;100.00;-18630.78;4968859;28;20410;-78
2023/06/21 06:31:52;;;;;;;;;;;;;;;22.49;100.00;-18631.03;4968590;28;19946;-77
2023/06/21 06:34:18;;;;;;;;;;;;;;;22.49;100.00;-18631.03;4966253;28;20333;-76
2023/06/21 06:36:44;;;;;;;;;;;;;;;22.32;100.00;-18626.44;4965957;28;20291;-77
2023/06/21 06:39:10;;;;;;;;;;;;;;;22.58;100.00;-18633.34;4965181;28;19922;-77
2023/06/21 06:41:35;;;;;;;;;;;;;;;22.33;100.00;-18626.84;4965939;28;20283;-77
2023/06/21 06:44:00;;;;;;;;;;;;;;;22.24;100.00;-18624.53;4983318;28;19925;-77
2023/06/21 06:46:26;;;;;;;;;;;;;;;22.32;100.00;-18626.44;4965574;28;20433;-77
2023/06/21 06:48:51;;;;;;;;;;;;;;;22.38;100.00;-18628.06;4964723;28;20498;-77
2023/06/21 06:51:16;;;;;;;;;;;;;;;22.51;100.00;-18631.59;4963347;28;19918;-77
2023/06/21 06:53:42;;;;;;;;;;;;;;;22.55;100.00;-18632.66;4966195;28;19918;-77
2023/06/21 06:56:07;;;;;;;;;;;;;;;22.58;100.00;-18633.50;4967218;28;19922;-77
2023/06/21 06:58:35;;;;;;;;;;;;;;;22.58;100.00;-18633.50;4965511;28;20456;-77
2023/06/21 07:01:00;;;;;;;;;;;;;;;22.44;100.00;-18629.81;4965403;28;19973;-76
2023/06/21 07:03:25;;;;;;;;;;;;;;;22.21;100.00;-18623.72;4966011;28;19925;-76
2023/06/21 07:05:50;;;;;;;;;;;;;;;22.32;100.00;-18626.44;4984525;28;19937;-77
2023/06/21 07:08:16;;;;;;;;;;;;;;;22.50;100.00;-18631.31;4967842;28;19926;-77
2023/06/21 07:10:41;;;;;;;;;;;;;;;22.67;100.00;-18635.78;4967447;28;20301;-77
2023/06/21 07:13:07;;;;;;;;;;;;;;;22.89;100.00;-18641.63;4970293;28;19924;-76
2023/06/21 07:15:33;;;;;;;;;;;;;;;23.22;100.00;-18650.47;4969300;28;19930;-77
2023/06/21 07:17:58;;;;;;;;;;;;;;;23.25;100.00;-18651.28;4985215;28;20009;-77
2023/06/21 07:20:23;;;;;;;;;;;;;;;23.02;100.00;-18645.03;4982839;28;20370;-77
2023/06/21 07:22:48;;;;;;;;;;;;;;;22.87;100.00;-18641.22;4984871;28;20013;-79
2023/06/21 07:25:14;;;;;;;;;;;;;;;22.87;100.00;-18641.09;4970780;28;19925;-77
2023/06/21 07:27:40;;;;;;;;;;;;;;;22.85;100.00;-18640.56;4969309;28;19984;-76
2023/06/21 07:30:06;;;;;;;;;;;;;;;22.89;100.00;-18641.63;4966322;28;19937;-76
2023/06/21 07:32:33;;;;;;;;;;;;;;;23.06;100.00;-18646.25;4967679;28;19993;-76
2023/06/21 07:34:58;;;;;;;;;;;;;;;23.00;100.00;-18644.63;4969175;28;20005;-76
2023/06/21 07:37:24;;;;;;;;;;;;;;;23.00;100.00;-18644.50;4984784;28;20006;-76
2023/06/21 07:39:49;;;;;;;;;;;;;;;23.13;100.00;-18648.16;4967778;28;19926;-76
2023/06/21 07:42:14;;;;;;;;;;;;;;;23.23;100.00;-18650.59;4973444;28;19925;-76
2023/06/21 07:44:40;;;;;;;;;;;;;;;23.29;100.00;-18652.22;4968576;28;20022;-76
2023/06/21 07:47:06;;;;;;;;;;;;;;;23.22;100.00;-18650.47;4969798;28;19918;-77
2023/06/21 07:49:31;;;;;;;;;;;;;;;23.26;100.00;-18651.41;4965829;28;19939;-76
2023/06/21 07:51:56;;;;;;;;;;;;;;;23.44;100.00;-18656.28;4971197;28;20004;-77
2023/06/21 07:54:23;;;;;;;;;;;;;;;23.47;100.00;-18657.09;4968236;28;19918;-76
2023/06/21 07:56:48;;;;;;;;;;;;;;;23.59;100.00;-18660.34;4972088;28;19969;-76
2023/06/21 07:59:13;;;;;;;;;;;;;;;23.68;100.00;-18662.66;4968172;28;19968;-78
2023/06/21 08:01:38;;;;;;;;;;;;;;;23.69;100.00;-18662.94;4968933;28;19922;-75
2023/06/21 08:04:03;;;;;;;;;;;;;;;23.75;100.00;-18664.44;4968519;28;19922;-78
2023/06/21 08:06:29;;;;;;;;;;;;;;;23.94;100.00;-18669.44;4967460;28;19972;-76
2023/06/21 08:08:54;;;;;;;;;;;;;;;23.99;100.00;-18670.94;4972680;28;19925;-77
2023/06/21 08:11:19;;;;;;;;;;;;;;;24.30;100.00;-18679.06;4968040;28;19922;-77
2023/06/21 08:13:45;;;;;;;;;;;;;;;24.07;100.00;-18673.09;4967098;28;19979;-77
2023/06/21 08:16:10;;;;;;;;;;;;;;;24.17;100.00;-18675.53;4966202;28;20294;-77
2023/06/21 08:18:35;;;;;;;;;;;;;;;24.37;100.00;-18680.97;4964233;28;19923;-77
2023/06/21 08:21:01;;;;;;;;;;;;;;;24.46;100.00;-18683.28;4966190;28;19944;-77
2023/06/21 08:23:26;;;;;;;;;;;;;;;24.54;100.00;-18685.56;4966777;28;19921;-77
2023/06/21 08:25:51;;;;;;;;;;;;;;;24.17;100.00;-18675.69;4982059;28;19925;-76
2023/06/21 08:28:16;;;;;;;;;;;;;;;24.39;100.00;-18681.50;4965748;28;20402;-77
2023/06/21 08:30:42;;;;;;;;;;;;;;;24.47;100.00;-18683.53;4966007;28;19933;-77
2023/06/21 08:33:07;;;;;;;;;;;;;;;24.35;100.00;-18680.41;4970640;28;20004;-77
2023/06/21 08:35:32;;;;;;;;;;;;;;;24.26;100.00;-18677.97;4972049;28;19925;-77
2023/06/21 08:37:58;;;;;;;;;;;;;;;24.27;100.00;-18678.38;4970005;28;20004;-77
2023/06/21 08:40:30;;;;;;;;;;;;;;;24.59;100.00;-18686.66;4974015;28;19914;-78
2023/06/21 08:42:56;;;;;;;;;;;;;;;24.45;100.00;-18683.00;4971717;28;19965;-76
2023/06/21 08:45:21;;;;;;;;;;;;;;;24.49;100.00;-18684.22;4971945;28;19918;-78
2023/06/21 08:47:47;;;;;;;;;;;;;;;24.53;100.00;-18685.31;4970264;28;19984;-76
2023/06/21 08:50:16;;;;;;;;;;;;;;;24.40;100.00;-18681.78;4972626;28;19953;-78
2023/06/21 08:52:43;;;;;;;;;;;;;;;24.72;100.00;-18690.31;4975238;28;19917;-77
2023/06/21 08:55:09;;;;;;;;;;;;;;;24.66;100.00;-18688.56;4970377;28;20669;-77
2023/06/21 08:57:55;;;;;;;;;;;;;;;24.66;100.00;-18688.56;4969459;28;20452;-77
2023/06/21 09:00:22;;;;;;;;;;;;;;;24.24;100.00;-18677.44;4971216;28;20030;-76
2023/06/21 09:02:52;;;;;;;;;;;;;;;24.48;100.00;-18683.94;4975997;28;20001;-78
2023/06/21 09:05:31;;;;;;;;;;;;;;;24.58;100.00;-18686.53;4969056;28;19926;-77
2023/06/21 09:07:57;;;;;;;;;;;;;;;24.89;100.00;-18694.66;4970302;28;20396;-77
2023/06/21 09:10:22;;;;;;;;;;;;;;;24.65;100.00;-18688.41;4964326;28;19917;-77
2023/06/21 09:12:49;;;;;;;;;;;;;;;24.61;100.00;-18687.19;4977171;28;19914;-78
2023/06/21 09:15:15;;;;;;;;;;;;;;;24.76;100.00;-18691.25;4969163;28;19918;-78
2023/06/21 09:17:42;;;;;;;;;;;;;;;25.05;100.00;-18698.97;4968143;28;20008;-77
2023/06/21 09:20:08;;;;;;;;;;;;;;;25.17;100.00;-18702.09;4970882;28;20005;-77
2023/06/21 09:22:34;;;;;;;;;;;;;;;25.18;100.00;-18702.38;4968164;28;19914;-77
2023/06/21 09:24:59;;;;;;;;;;;;;;;25.57;100.00;-18712.66;4968133;28;19926;-76
2023/06/21 09:27:25;;;;;;;;;;;;;;;25.62;100.00;-18714.00;4968178;28;19914;-77
2023/06/21 09:29:50;;;;;;;;;;;;;;;25.60;100.00;-18713.59;4982660;28;20361;-77
2023/06/21 09:32:15;;;;;;;;;;;;;;;25.82;100.00;-18719.28;4976693;28;19918;-77
2023/06/21 09:34:41;;;;;;;;;;;;;;;25.99;100.00;-18723.88;4989080;28;19925;-77
2023/06/21 09:37:06;;;;;;;;;;;;;;;26.10;100.00;-18726.72;4971740;28;19914;-77
2023/06/21 09:39:31;;;;;;;;;;;;;;;26.35;100.00;-18733.34;4967947;28;20389;-77
2023/06/21 09:41:57;;;;;;;;;;;;;;;26.81;100.00;-18745.38;4986115;28;20373;-77
2023/06/21 09:44:23;;;;;;;;;;;;;;;26.99;100.00;-18750.25;4968258;28;20362;-78
2023/06/21 09:46:48;;;;;;;;;;;;;;;26.76;100.00;-18744.31;4969105;28;19914;-77
2023/06/21 09:49:15;;;;;;;;;;;;;;;26.72;100.00;-18743.09;4969036;28;19918;-76
2023/06/21 09:51:41;;;;;;;;;;;;;;;26.43;100.00;-18735.38;4971032;28;20425;-77
2023/06/21 09:54:08;;;;;;;;;;;;;;;26.31;100.00;-18732.25;4970267;28;19920;-78
2023/06/21 09:56:35;;;;;;;;;;;;;;;26.53;100.00;-18738.09;4965914;28;19945;-78
2023/06/21 09:59:01;;;;;;;;;;;;;;;26.57;100.00;-18739.16;4968579;28;19945;-77
2023/06/21 10:01:35;;;;;;;;;;;;;;;26.68;100.00;-18742.00;4999255;23;19929;-78
2023/06/21 10:04:00;;;;;;;;;;;;;;;26.62;100.00;-18740.38;4937487;28;19950;-80
2023/06/21 10:06:28;;;;;;;;;;;;;;;26.69;100.00;-18742.28;4942244;28;20006;-79
2023/06/21 10:08:54;;;;;;;;;;;;;;;26.54;100.00;-18738.50;4929993;28;19918;-79
2023/06/21 10:11:19;;;;;;;;;;;;;;;26.81;100.00;-18745.38;4930085;28;20294;-80
2023/06/21 10:13:45;;;;;;;;;;;;;;;26.91;100.00;-18748.22;4930594;28;19922;-78
2023/06/21 10:16:12;;;;;;;;;;;;;;;27.18;100.00;-18755.38;4930652;28;19915;-78
2023/06/21 10:18:38;;;;;;;;;;;;;;;27.11;100.00;-18753.47;4929651;29;19914;-80
2023/06/21 10:21:04;;;;;;;;;;;;;;;27.10;100.00;-18753.22;4947777;28;19925;-79
2023/06/21 10:23:31;;;;;;;;;;;;;;;26.93;100.00;-18748.63;4929726;29;19926;-80
2023/06/21 10:26:07;;;;;;;;;;;;;;;27.05;100.00;-18751.72;4948063;28;19918;-80
2023/06/21 10:28:37;;;;;;;;;;;;;;;26.95;100.00;-18749.16;4937311;28;19992;-78
2023/06/21 10:31:08;;;;;;;;;;;;;;;27.20;100.00;-18755.91;4919463;28;19919;-79
2023/06/21 10:33:35;;;;;;;;;;;;;;;27.12;98.21;-18753.75;4930498;29;19918;-78
2023/06/21 10:36:01;;;;;;;;;;;;;;;27.19;100.00;-18755.66;4930753;28;19962;-78
2023/06/21 10:38:41;;;;;;;;;;;;;;;27.25;100.00;-18757.13;4924355;28;19925;-80
2023/06/21 10:41:07;;;;;;;;;;;;;;;27.47;98.68;-18762.94;4939160;28;20005;-80
2023/06/21 10:43:33;;;;;;;;;;;;;;;27.34;98.41;-18759.56;4933652;28;20196;-79
2023/06/21 10:45:59;;;;;;;;;;;;;;;27.15;99.87;-18754.56;4934062;28;20422;-79
2023/06/21 10:48:25;;;;;;;;;;;;;;;27.32;100.00;-18758.88;4939404;28;19973;-78
2023/06/21 10:50:51;;;;;;;;;;;;;;;27.29;99.89;-18758.09;4931942;29;20361;-80
2023/06/21 10:53:18;;;;;;;;;;;;;;;27.36;96.50;-18760.09;4946955;28;19949;-79
2023/06/21 10:55:43;;;;;;;;;;;;;;;27.51;92.21;-18763.88;4933311;29;19919;-80
2023/06/21 10:58:10;;;;;;;;;;;;;;;27.44;91.15;-18762.13;4934343;28;19918;-80
2023/06/21 11:00:35;;;;;;;;;;;;;;;27.47;89.49;-18762.94;4934916;28;20434;-79
2023/06/21 11:03:00;;;;;;;;;;;;;;;27.40;87.44;-18761.19;4943907;28;19915;-79
2023/06/21 11:05:26;;;;;;;;;;;;;;;27.36;84.13;-18759.97;4933013;29;20032;-78
2023/06/21 11:07:59;;;;;;;;;;;;;;;27.75;79.51;-18770.22;4937304;28;20373;-79
2023/06/21 11:10:46;;;;;;;;;;;;;;;27.85;74.45;-18772.94;4937171;28;19914;-80
2023/06/21 11:13:11;;;;;;;;;;;;;;;27.78;80.24;-18771.16;4933720;29;19915;-80
2023/06/21 11:15:37;;;;;;;;;;;;;;;27.66;75.01;-18768.06;4933514;28;19921;-80
2023/06/21 11:18:05;;;;;;;;;;;;;;;27.62;75.67;-18767.00;4946806;28;20013;-80
2023/06/21 11:20:31;;;;;;;;;;;;;;;27.52;74.09;-18764.16;4944694;28;19914;-80
2023/06/21 11:22:57;;;;;;;;;;;;;;;27.68;76.70;-18768.59;4948732;28;19922;-79
2023/06/21 11:25:22;;;;;;;;;;;;;;;27.64;75.57;-18767.53;4936413;28;19953;-79
2023/06/21 11:28:13;;;;;;;;;;;;;;;27.89;73.48;-18774.16;4952089;28;20413;-79
2023/06/21 11:30:39;;;;;;;;;;;;;;;27.98;74.35;-18776.44;4937425;28;19942;-79
2023/06/21 11:33:17;;;;;;;;;;;;;;;28.17;71.60;-18781.28;4937370;29;19914;-79
2023/06/21 11:35:50;;;;;;;;;;;;;;;28.35;69.01;-18786.28;4931921;29;19926;-79
2023/06/21 11:38:15;;;;;;;;;;;;;;;28.56;67.96;-18791.69;4925216;29;19972;-79
2023/06/21 11:40:40;;;;;;;;;;;;;;;28.15;70.77;-18780.75;4929986;28;19970;-79
2023/06/21 11:43:05;;;;;;;;;;;;;;;27.86;70.87;-18773.19;4935255;28;19915;-79
2023/06/21 11:45:35;;;;;;;;;;;;;;;27.62;74.68;-18766.84;4933777;29;19918;-79
2023/06/21 11:48:03;;;;;;;;;;;;;;;27.68;77.10;-18768.59;4926990;29;19929;-79
2023/06/21 11:50:35;;;;;;;;;;;;;;;28.10;73.63;-18779.53;4938275;28;19921;-79
2023/06/21 11:53:23;;;;;;;;;;;;;;;28.25;70.91;-18783.59;4944159;29;19953;-78
2023/06/21 11:55:50;;;;;;;;;;;;;;;28.36;69.28;-18786.41;4962723;28;19918;-78
2023/06/21 11:58:15;;;;;;;;;;;;;;;28.50;68.06;-18790.06;4957725;28;19922;-78
2023/06/21 12:00:41;;;;;;;;;;;;;;;28.79;65.00;-18797.88;4942482;29;19982;-78
2023/06/21 12:03:06;;;;;;;;;;;;;;;28.69;67.24;-18795.19;4954612;29;20417;-78
2023/06/21 12:05:48;;;;;;;;;;;;;;;28.91;62.99;-18800.84;4944865;29;20391;-79
2023/06/21 12:08:14;;;;;;;;;;;;;;;29.15;63.28;-18807.19;4927554;29;19918;-79
2023/06/21 12:10:39;;;;;;;;;;;;;;;28.91;58.82;-18800.97;4934515;28;19914;-79
2023/06/21 12:13:05;;;;;;;;;;;;;;;29.12;58.59;-18806.38;4937552;28;19969;-79
2023/06/21 12:15:30;;;;;;;;;;;;;;;29.24;51.30;-18809.59;4941524;28;19973;-79
2023/06/21 12:17:56;;;;;;;;;;;;;;;29.51;55.21;-18816.75;4936190;29;20602;-79
2023/06/21 12:20:21;;;;;;;;;;;;;;;29.48;54.15;-18815.81;4936624;28;19919;-79
2023/06/21 12:22:46;;;;;;;;;;;;;;;29.42;54.12;-18814.31;4935720;29;19918;-79
2023/06/21 12:25:12;;;;;;;;;;;;;;;29.22;52.89;-18809.06;4935252;29;19918;-79